sensor_id;sensor_type;location;lat;lon;timestamp;P1;durP1;ratioP1;P2;durP2;ratioP2
20056;SDS011;10189;49.546;7.906;2023-07-30T00:02:24;1.92;;;0.90;;
20056;SDS011;10189;49.546;7.906;2023-07-30T00:04:50;3.17;;;1.05;;
20056;SDS011;10189;49.546;7.906;2023-07-30T00:07:17;2.35;;;1.00;;
20056;SDS011;10189;49.546;7.906;2023-07-30T00:09:43;1.48;;;0.90;;
20056;SDS011;10189;49.546;7.906;2023-07-30T00:12:09;1.50;;;0.95;;
20056;SDS011;10189;49.546;7.906;2023-07-30T00:14:35;1.65;;;1.10;;
20056;SDS011;10189;49.546;7.906;2023-07-30T00:17:02;0.93;;;0.93;;
20056;SDS011;10189;49.546;7.906;2023-07-30T00:19:29;1.85;;;1.20;;
20056;SDS011;10189;49.546;7.906;2023-07-30T00:21:55;1.40;;;1.20;;
20056;SDS011;10189;49.546;7.906;2023-07-30T00:24:21;8.57;;;1.58;;
20056;SDS011;10189;49.546;7.906;2023-07-30T00:26:47;1.67;;;1.25;;
20056;SDS011;10189;49.546;7.906;2023-07-30T00:29:14;1.83;;;1.30;;
20056;SDS011;10189;49.546;7.906;2023-07-30T00:31:40;1.85;;;1.35;;
20056;SDS011;10189;49.546;7.906;2023-07-30T00:34:06;1.42;;;1.33;;
20056;SDS011;10189;49.546;7.906;2023-07-30T00:36:32;2.55;;;1.55;;
20056;SDS011;10189;49.546;7.906;2023-07-30T00:38:58;2.67;;;1.70;;
20056;SDS011;10189;49.546;7.906;2023-07-30T00:41:25;2.13;;;1.92;;
20056;SDS011;10189;49.546;7.906;2023-07-30T00:43:51;3.08;;;2.25;;
20056;SDS011;10189;49.546;7.906;2023-07-30T00:46:17;2.42;;;2.22;;
20056;SDS011;10189;49.546;7.906;2023-07-30T00:48:43;3.40;;;2.47;;
20056;SDS011;10189;49.546;7.906;2023-07-30T00:51:11;4.38;;;2.50;;
20056;SDS011;10189;49.546;7.906;2023-07-30T00:53:40;2.70;;;2.47;;
20056;SDS011;10189;49.546;7.906;2023-07-30T00:56:06;3.65;;;2.75;;
20056;SDS011;10189;49.546;7.906;2023-07-30T00:58:33;4.05;;;2.70;;
20056;SDS011;10189;49.546;7.906;2023-07-30T01:01:00;4.20;;;3.33;;
20056;SDS011;10189;49.546;7.906;2023-07-30T01:03:26;3.85;;;3.00;;
20056;SDS011;10189;49.546;7.906;2023-07-30T01:05:53;4.00;;;3.53;;
20056;SDS011;10189;49.546;7.906;2023-07-30T01:08:19;5.38;;;3.40;;
20056;SDS011;10189;49.546;7.906;2023-07-30T01:10:47;5.10;;;3.30;;
20056;SDS011;10189;49.546;7.906;2023-07-30T01:13:14;3.65;;;2.97;;
20056;SDS011;10189;49.546;7.906;2023-07-30T01:15:42;3.70;;;3.35;;
20056;SDS011;10189;49.546;7.906;2023-07-30T01:18:09;3.88;;;3.45;;
20056;SDS011;10189;49.546;7.906;2023-07-30T01:20:35;3.63;;;3.33;;
20056;SDS011;10189;49.546;7.906;2023-07-30T01:23:01;4.57;;;3.20;;
20056;SDS011;10189;49.546;7.906;2023-07-30T01:25:28;3.70;;;3.40;;
20056;SDS011;10189;49.546;7.906;2023-07-30T01:28:01;9.18;;;3.40;;
20056;SDS011;10189;49.546;7.906;2023-07-30T01:30:32;5.55;;;3.83;;
20056;SDS011;10189;49.546;7.906;2023-07-30T01:33:07;4.10;;;3.67;;
20056;SDS011;10189;49.546;7.906;2023-07-30T01:35:35;4.10;;;3.42;;
20056;SDS011;10189;49.546;7.906;2023-07-30T01:38:03;5.00;;;3.45;;
20056;SDS011;10189;49.546;7.906;2023-07-30T01:40:34;4.43;;;3.55;;
20056;SDS011;10189;49.546;7.906;2023-07-30T01:43:00;3.75;;;3.38;;
20056;SDS011;10189;49.546;7.906;2023-07-30T01:45:27;4.05;;;3.70;;
20056;SDS011;10189;49.546;7.906;2023-07-30T01:47:53;4.70;;;4.30;;
20056;SDS011;10189;49.546;7.906;2023-07-30T01:50:19;4.13;;;3.70;;
20056;SDS011;10189;49.546;7.906;2023-07-30T01:52:46;4.70;;;4.18;;
20056;SDS011;10189;49.546;7.906;2023-07-30T01:55:12;5.00;;;4.30;;
20056;SDS011;10189;49.546;7.906;2023-07-30T01:57:38;5.20;;;4.70;;
20056;SDS011;10189;49.546;7.906;2023-07-30T02:00:05;5.25;;;4.80;;
20056;SDS011;10189;49.546;7.906;2023-07-30T02:02:32;5.18;;;4.78;;
20056;SDS011;10189;49.546;7.906;2023-07-30T02:04:58;5.95;;;5.35;;
20056;SDS011;10189;49.546;7.906;2023-07-30T02:07:24;6.30;;;4.78;;
20056;SDS011;10189;49.546;7.906;2023-07-30T02:09:50;5.75;;;5.20;;
20056;SDS011;10189;49.546;7.906;2023-07-30T02:12:18;5.07;;;4.35;;
20056;SDS011;10189;49.546;7.906;2023-07-30T02:14:44;6.13;;;5.40;;
20056;SDS011;10189;49.546;7.906;2023-07-30T02:17:11;5.38;;;4.88;;
20056;SDS011;10189;49.546;7.906;2023-07-30T02:19:37;6.60;;;5.13;;
20056;SDS011;10189;49.546;7.906;2023-07-30T02:22:03;5.75;;;5.25;;
20056;SDS011;10189;49.546;7.906;2023-07-30T02:24:30;5.80;;;5.30;;
20056;SDS011;10189;49.546;7.906;2023-07-30T02:26:56;5.75;;;5.18;;
20056;SDS011;10189;49.546;7.906;2023-07-30T02:29:22;6.10;;;5.30;;
20056;SDS011;10189;49.546;7.906;2023-07-30T02:31:48;5.10;;;4.63;;
20056;SDS011;10189;49.546;7.906;2023-07-30T02:34:14;6.15;;;5.55;;
20056;SDS011;10189;49.546;7.906;2023-07-30T02:36:43;6.32;;;5.00;;
20056;SDS011;10189;49.546;7.906;2023-07-30T02:39:10;6.75;;;5.75;;
20056;SDS011;10189;49.546;7.906;2023-07-30T02:41:36;5.50;;;5.00;;
20056;SDS011;10189;49.546;7.906;2023-07-30T02:44:02;5.80;;;5.30;;
20056;SDS011;10189;49.546;7.906;2023-07-30T02:46:29;8.00;;;5.72;;
20056;SDS011;10189;49.546;7.906;2023-07-30T02:48:55;6.00;;;5.50;;
20056;SDS011;10189;49.546;7.906;2023-07-30T02:51:21;6.18;;;5.57;;
20056;SDS011;10189;49.546;7.906;2023-07-30T02:53:47;6.82;;;5.95;;
20056;SDS011;10189;49.546;7.906;2023-07-30T02:58:44;6.53;;;5.90;;
20056;SDS011;10189;49.546;7.906;2023-07-30T03:01:10;8.32;;;7.22;;
20056;SDS011;10189;49.546;7.906;2023-07-30T03:03:36;7.10;;;6.40;;
20056;SDS011;10189;49.546;7.906;2023-07-30T03:06:03;6.85;;;6.20;;
20056;SDS011;10189;49.546;7.906;2023-07-30T03:08:29;7.32;;;6.63;;
20056;SDS011;10189;49.546;7.906;2023-07-30T03:10:59;8.43;;;7.63;;
20056;SDS011;10189;49.546;7.906;2023-07-30T03:13:25;8.55;;;7.75;;
20056;SDS011;10189;49.546;7.906;2023-07-30T03:15:51;7.13;;;6.32;;
20056;SDS011;10189;49.546;7.906;2023-07-30T03:18:18;8.60;;;7.70;;
20056;SDS011;10189;49.546;7.906;2023-07-30T03:20:44;9.45;;;7.82;;
20056;SDS011;10189;49.546;7.906;2023-07-30T03:23:10;7.93;;;7.15;;
20056;SDS011;10189;49.546;7.906;2023-07-30T03:25:36;9.38;;;8.48;;
20056;SDS011;10189;49.546;7.906;2023-07-30T03:28:02;9.75;;;8.80;;
20056;SDS011;10189;49.546;7.906;2023-07-30T03:30:29;11.15;;;9.90;;
20056;SDS011;10189;49.546;7.906;2023-07-30T03:32:55;11.38;;;10.20;;
20056;SDS011;10189;49.546;7.906;2023-07-30T03:35:22;10.93;;;9.48;;
20056;SDS011;10189;49.546;7.906;2023-07-30T03:37:48;11.05;;;9.63;;
20056;SDS011;10189;49.546;7.906;2023-07-30T03:40:14;9.70;;;8.70;;
20056;SDS011;10189;49.546;7.906;2023-07-30T03:42:40;11.77;;;10.23;;
20056;SDS011;10189;49.546;7.906;2023-07-30T03:45:07;11.10;;;10.00;;
20056;SDS011;10189;49.546;7.906;2023-07-30T03:47:33;10.05;;;8.95;;
20056;SDS011;10189;49.546;7.906;2023-07-30T03:49:59;9.40;;;8.38;;
20056;SDS011;10189;49.546;7.906;2023-07-30T03:52:26;10.27;;;7.88;;
20056;SDS011;10189;49.546;7.906;2023-07-30T03:54:52;7.03;;;6.32;;
20056;SDS011;10189;49.546;7.906;2023-07-30T03:57:18;8.57;;;7.07;;
20056;SDS011;10189;49.546;7.906;2023-07-30T03:59:44;7.90;;;7.07;;
20056;SDS011;10189;49.546;7.906;2023-07-30T04:02:10;9.63;;;7.20;;
20056;SDS011;10189;49.546;7.906;2023-07-30T04:04:41;9.23;;;7.27;;
20056;SDS011;10189;49.546;7.906;2023-07-30T04:07:14;8.85;;;6.95;;
20056;SDS011;10189;49.546;7.906;2023-07-30T04:09:40;7.60;;;6.78;;
20056;SDS011;10189;49.546;7.906;2023-07-30T04:12:06;8.68;;;7.43;;
20056;SDS011;10189;49.546;7.906;2023-07-30T04:14:32;7.82;;;7.03;;
20056;SDS011;10189;49.546;7.906;2023-07-30T04:16:58;8.30;;;7.15;;
20056;SDS011;10189;49.546;7.906;2023-07-30T04:19:24;8.90;;;7.60;;
20056;SDS011;10189;49.546;7.906;2023-07-30T04:21:50;11.05;;;8.68;;
20056;SDS011;10189;49.546;7.906;2023-07-30T04:24:17;9.40;;;8.38;;
20056;SDS011;10189;49.546;7.906;2023-07-30T04:26:43;8.98;;;7.78;;
20056;SDS011;10189;49.546;7.906;2023-07-30T04:29:09;9.57;;;8.57;;
20056;SDS011;10189;49.546;7.906;2023-07-30T04:31:35;9.25;;;8.27;;
20056;SDS011;10189;49.546;7.906;2023-07-30T04:34:01;9.85;;;8.38;;
20056;SDS011;10189;49.546;7.906;2023-07-30T04:36:28;9.93;;;8.75;;
20056;SDS011;10189;49.546;7.906;2023-07-30T04:38:55;9.73;;;8.68;;
20056;SDS011;10189;49.546;7.906;2023-07-30T04:41:27;12.40;;;8.90;;
20056;SDS011;10189;49.546;7.906;2023-07-30T04:43:56;11.30;;;8.00;;
20056;SDS011;10189;49.546;7.906;2023-07-30T04:46:22;8.68;;;7.78;;
20056;SDS011;10189;49.546;7.906;2023-07-30T04:48:48;9.98;;;8.93;;
20056;SDS011;10189;49.546;7.906;2023-07-30T04:51:17;9.95;;;8.80;;
20056;SDS011;10189;49.546;7.906;2023-07-30T04:53:43;9.65;;;8.57;;
20056;SDS011;10189;49.546;7.906;2023-07-30T04:56:08;8.55;;;7.53;;
20056;SDS011;10189;49.546;7.906;2023-07-30T04:58:34;8.43;;;7.25;;
20056;SDS011;10189;49.546;7.906;2023-07-30T05:01:01;10.05;;;8.13;;
20056;SDS011;10189;49.546;7.906;2023-07-30T05:03:27;9.52;;;8.40;;
20056;SDS011;10189;49.546;7.906;2023-07-30T05:05:53;11.68;;;8.07;;
20056;SDS011;10189;49.546;7.906;2023-07-30T05:08:19;8.30;;;7.45;;
20056;SDS011;10189;49.546;7.906;2023-07-30T05:10:44;9.48;;;7.75;;
20056;SDS011;10189;49.546;7.906;2023-07-30T05:13:10;10.52;;;7.70;;
20056;SDS011;10189;49.546;7.906;2023-07-30T05:15:38;10.43;;;8.35;;
20056;SDS011;10189;49.546;7.906;2023-07-30T05:18:04;11.85;;;9.27;;
20056;SDS011;10189;49.546;7.906;2023-07-30T05:20:29;8.90;;;8.00;;
20056;SDS011;10189;49.546;7.906;2023-07-30T05:22:55;7.60;;;6.95;;
20056;SDS011;10189;49.546;7.906;2023-07-30T05:25:21;8.80;;;6.82;;
20056;SDS011;10189;49.546;7.906;2023-07-30T05:27:48;8.27;;;7.47;;
20056;SDS011;10189;49.546;7.906;2023-07-30T05:30:13;9.27;;;8.25;;
20056;SDS011;10189;49.546;7.906;2023-07-30T05:32:39;9.90;;;8.90;;
20056;SDS011;10189;49.546;7.906;2023-07-30T05:35:05;9.98;;;9.00;;
20056;SDS011;10189;49.546;7.906;2023-07-30T05:37:31;8.82;;;7.93;;
20056;SDS011;10189;49.546;7.906;2023-07-30T05:39:57;8.65;;;7.85;;
20056;SDS011;10189;49.546;7.906;2023-07-30T05:42:23;9.00;;;8.20;;
20056;SDS011;10189;49.546;7.906;2023-07-30T05:44:49;8.75;;;7.85;;
20056;SDS011;10189;49.546;7.906;2023-07-30T05:47:14;7.32;;;6.57;;
20056;SDS011;10189;49.546;7.906;2023-07-30T05:49:40;7.82;;;7.03;;
20056;SDS011;10189;49.546;7.906;2023-07-30T05:52:06;7.20;;;6.50;;
20056;SDS011;10189;49.546;7.906;2023-07-30T05:54:32;7.47;;;6.45;;
20056;SDS011;10189;49.546;7.906;2023-07-30T05:56:58;9.43;;;6.93;;
20056;SDS011;10189;49.546;7.906;2023-07-30T05:59:24;8.00;;;5.63;;
20056;SDS011;10189;49.546;7.906;2023-07-30T06:01:49;5.80;;;5.30;;
20056;SDS011;10189;49.546;7.906;2023-07-30T06:04:15;5.95;;;5.35;;
20056;SDS011;10189;49.546;7.906;2023-07-30T06:06:41;5.50;;;5.00;;
20056;SDS011;10189;49.546;7.906;2023-07-30T06:09:07;4.88;;;4.30;;
20056;SDS011;10189;49.546;7.906;2023-07-30T06:11:33;6.35;;;4.57;;
20056;SDS011;10189;49.546;7.906;2023-07-30T06:13:59;5.10;;;4.45;;
20056;SDS011;10189;49.546;7.906;2023-07-30T06:16:24;6.35;;;4.22;;
20056;SDS011;10189;49.546;7.906;2023-07-30T06:18:50;4.40;;;3.97;;
20056;SDS011;10189;49.546;7.906;2023-07-30T06:21:16;4.93;;;4.43;;
20056;SDS011;10189;49.546;7.906;2023-07-30T06:23:42;4.40;;;4.00;;
20056;SDS011;10189;49.546;7.906;2023-07-30T06:26:08;7.47;;;4.93;;
20056;SDS011;10189;49.546;7.906;2023-07-30T06:28:33;5.03;;;4.60;;
20056;SDS011;10189;49.546;7.906;2023-07-30T06:31:00;6.25;;;4.60;;
20056;SDS011;10189;49.546;7.906;2023-07-30T06:33:27;6.40;;;4.97;;
20056;SDS011;10189;49.546;7.906;2023-07-30T06:35:53;6.68;;;5.50;;
20056;SDS011;10189;49.546;7.906;2023-07-30T06:38:19;5.72;;;5.20;;
20056;SDS011;10189;49.546;7.906;2023-07-30T06:40:44;6.82;;;5.50;;
20056;SDS011;10189;49.546;7.906;2023-07-30T06:43:10;6.45;;;5.45;;
20056;SDS011;10189;49.546;7.906;2023-07-30T06:45:36;8.15;;;6.53;;
20056;SDS011;10189;49.546;7.906;2023-07-30T06:48:02;6.30;;;5.55;;
20056;SDS011;10189;49.546;7.906;2023-07-30T06:50:28;5.82;;;5.32;;
20056;SDS011;10189;49.546;7.906;2023-07-30T06:52:54;5.80;;;5.25;;
20056;SDS011;10189;49.546;7.906;2023-07-30T06:55:20;5.72;;;5.03;;
20056;SDS011;10189;49.546;7.906;2023-07-30T06:57:45;4.60;;;4.20;;
20056;SDS011;10189;49.546;7.906;2023-07-30T07:00:11;4.72;;;4.38;;
20056;SDS011;10189;49.546;7.906;2023-07-30T07:02:38;5.43;;;3.58;;
20056;SDS011;10189;49.546;7.906;2023-07-30T07:05:04;6.38;;;3.80;;
20056;SDS011;10189;49.546;7.906;2023-07-30T07:07:30;5.68;;;3.40;;
20056;SDS011;10189;49.546;7.906;2023-07-30T07:09:56;3.92;;;3.00;;
20056;SDS011;10189;49.546;7.906;2023-07-30T07:12:22;4.70;;;3.08;;
20056;SDS011;10189;49.546;7.906;2023-07-30T07:14:47;4.25;;;3.00;;
20056;SDS011;10189;49.546;7.906;2023-07-30T07:17:14;3.50;;;3.20;;
20056;SDS011;10189;49.546;7.906;2023-07-30T07:19:40;3.63;;;3.13;;
20056;SDS011;10189;49.546;7.906;2023-07-30T07:22:06;3.05;;;2.78;;
20056;SDS011;10189;49.546;7.906;2023-07-30T07:24:31;3.45;;;2.90;;
20056;SDS011;10189;49.546;7.906;2023-07-30T07:26:57;4.25;;;2.60;;
20056;SDS011;10189;49.546;7.906;2023-07-30T07:29:23;3.22;;;2.92;;
20056;SDS011;10189;49.546;7.906;2023-07-30T07:31:49;2.90;;;2.70;;
20056;SDS011;10189;49.546;7.906;2023-07-30T07:34:16;4.18;;;2.90;;
20056;SDS011;10189;49.546;7.906;2023-07-30T07:36:41;3.85;;;2.88;;
20056;SDS011;10189;49.546;7.906;2023-07-30T07:39:07;3.40;;;2.88;;
20056;SDS011;10189;49.546;7.906;2023-07-30T07:41:33;4.13;;;2.58;;
20056;SDS011;10189;49.546;7.906;2023-07-30T07:43:59;5.70;;;2.53;;
20056;SDS011;10189;49.546;7.906;2023-07-30T07:46:25;4.00;;;2.50;;
20056;SDS011;10189;49.546;7.906;2023-07-30T07:48:52;3.70;;;2.90;;
20056;SDS011;10189;49.546;7.906;2023-07-30T07:51:18;5.68;;;2.60;;
20056;SDS011;10189;49.546;7.906;2023-07-30T07:53:44;4.95;;;2.95;;
20056;SDS011;10189;49.546;7.906;2023-07-30T07:56:09;4.22;;;3.08;;
20056;SDS011;10189;49.546;7.906;2023-07-30T07:58:35;4.68;;;3.20;;
20056;SDS011;10189;49.546;7.906;2023-07-30T08:01:01;5.32;;;3.67;;
20056;SDS011;10189;49.546;7.906;2023-07-30T08:03:27;4.38;;;3.97;;
20056;SDS011;10189;49.546;7.906;2023-07-30T08:05:53;8.30;;;4.03;;
20056;SDS011;10189;49.546;7.906;2023-07-30T08:08:19;4.20;;;3.80;;
20056;SDS011;10189;49.546;7.906;2023-07-30T08:10:45;4.68;;;3.05;;
20056;SDS011;10189;49.546;7.906;2023-07-30T08:13:13;4.00;;;3.42;;
20056;SDS011;10189;49.546;7.906;2023-07-30T08:15:39;5.32;;;3.47;;
20056;SDS011;10189;49.546;7.906;2023-07-30T08:18:05;4.50;;;3.50;;
20056;SDS011;10189;49.546;7.906;2023-07-30T08:20:31;4.00;;;3.05;;
20056;SDS011;10189;49.546;7.906;2023-07-30T08:22:57;3.83;;;3.08;;
20056;SDS011;10189;49.546;7.906;2023-07-30T08:25:23;3.83;;;3.00;;
20056;SDS011;10189;49.546;7.906;2023-07-30T08:27:48;5.20;;;3.03;;
20056;SDS011;10189;49.546;7.906;2023-07-30T08:30:15;5.18;;;3.45;;
20056;SDS011;10189;49.546;7.906;2023-07-30T08:32:41;3.92;;;3.00;;
20056;SDS011;10189;49.546;7.906;2023-07-30T08:35:08;3.30;;;3.00;;
20056;SDS011;10189;49.546;7.906;2023-07-30T08:37:35;4.63;;;3.10;;
20056;SDS011;10189;49.546;7.906;2023-07-30T08:40:01;3.30;;;3.00;;
20056;SDS011;10189;49.546;7.906;2023-07-30T08:42:28;3.67;;;2.95;;
20056;SDS011;10189;49.546;7.906;2023-07-30T08:44:54;4.78;;;3.50;;
20056;SDS011;10189;49.546;7.906;2023-07-30T08:47:23;3.50;;;3.03;;
20056;SDS011;10189;49.546;7.906;2023-07-30T08:49:52;5.43;;;2.53;;
20056;SDS011;10189;49.546;7.906;2023-07-30T08:52:18;2.90;;;2.60;;
20056;SDS011;10189;49.546;7.906;2023-07-30T08:54:47;3.22;;;2.38;;
20056;SDS011;10189;49.546;7.906;2023-07-30T08:57:16;2.28;;;2.08;;
20056;SDS011;10189;49.546;7.906;2023-07-30T08:59:46;2.42;;;2.10;;
20056;SDS011;10189;49.546;7.906;2023-07-30T09:05:16;3.22;;;1.77;;
20056;SDS011;10189;49.546;7.906;2023-07-30T09:07:42;3.28;;;1.65;;
20056;SDS011;10189;49.546;7.906;2023-07-30T09:10:08;2.22;;;1.40;;
20056;SDS011;10189;49.546;7.906;2023-07-30T09:12:34;1.55;;;1.02;;
20056;SDS011;10189;49.546;7.906;2023-07-30T09:15:04;1.00;;;0.90;;
20056;SDS011;10189;49.546;7.906;2023-07-30T09:17:32;1.38;;;1.00;;
20056;SDS011;10189;49.546;7.906;2023-07-30T09:20:00;2.22;;;1.15;;
20056;SDS011;10189;49.546;7.906;2023-07-30T09:22:30;1.50;;;1.08;;
20056;SDS011;10189;49.546;7.906;2023-07-30T09:25:01;3.72;;;1.10;;
20056;SDS011;10189;49.546;7.906;2023-07-30T09:27:28;3.83;;;1.05;;
20056;SDS011;10189;49.546;7.906;2023-07-30T09:29:58;1.63;;;1.17;;
20056;SDS011;10189;49.546;7.906;2023-07-30T09:32:26;1.77;;;1.10;;
20056;SDS011;10189;49.546;7.906;2023-07-30T09:34:53;2.50;;;1.17;;
20056;SDS011;10189;49.546;7.906;2023-07-30T09:37:19;1.00;;;0.90;;
20056;SDS011;10189;49.546;7.906;2023-07-30T09:39:47;2.53;;;0.95;;
20056;SDS011;10189;49.546;7.906;2023-07-30T09:42:13;2.30;;;0.93;;
20056;SDS011;10189;49.546;7.906;2023-07-30T09:44:39;1.73;;;0.90;;
20056;SDS011;10189;49.546;7.906;2023-07-30T09:47:09;2.60;;;0.80;;
20056;SDS011;10189;49.546;7.906;2023-07-30T09:49:36;1.40;;;0.90;;
20056;SDS011;10189;49.546;7.906;2023-07-30T09:52:04;0.80;;;0.80;;
20056;SDS011;10189;49.546;7.906;2023-07-30T09:54:31;1.27;;;0.80;;
20056;SDS011;10189;49.546;7.906;2023-07-30T09:56:58;6.80;;;0.93;;
20056;SDS011;10189;49.546;7.906;2023-07-30T09:59:24;1.08;;;0.80;;
20056;SDS011;10189;49.546;7.906;2023-07-30T10:01:50;3.38;;;0.90;;
20056;SDS011;10189;49.546;7.906;2023-07-30T10:04:21;1.40;;;0.80;;
20056;SDS011;10189;49.546;7.906;2023-07-30T10:06:52;2.55;;;0.90;;
20056;SDS011;10189;49.546;7.906;2023-07-30T10:09:39;3.15;;;1.00;;
20056;SDS011;10189;49.546;7.906;2023-07-30T10:12:20;3.38;;;1.20;;
20056;SDS011;10189;49.546;7.906;2023-07-30T10:14:49;1.88;;;0.88;;
20056;SDS011;10189;49.546;7.906;2023-07-30T10:17:16;2.20;;;1.30;;
20056;SDS011;10189;49.546;7.906;2023-07-30T10:19:46;1.80;;;1.00;;
20056;SDS011;10189;49.546;7.906;2023-07-30T10:24:54;3.63;;;1.38;;
20056;SDS011;10189;49.546;7.906;2023-07-30T10:27:36;3.00;;;1.30;;
20056;SDS011;10189;49.546;7.906;2023-07-30T10:30:14;2.88;;;1.33;;
20056;SDS011;10189;49.546;7.906;2023-07-30T10:32:57;3.30;;;1.20;;
20056;SDS011;10189;49.546;7.906;2023-07-30T10:35:35;2.20;;;1.17;;
20056;SDS011;10189;49.546;7.906;2023-07-30T10:40:59;2.05;;;1.35;;
20056;SDS011;10189;49.546;7.906;2023-07-30T10:46:09;4.90;;;1.60;;
20056;SDS011;10189;49.546;7.906;2023-07-30T10:48:41;4.30;;;1.52;;
20056;SDS011;10189;49.546;7.906;2023-07-30T10:51:10;6.07;;;1.42;;
20056;SDS011;10189;49.546;7.906;2023-07-30T10:53:38;4.22;;;1.40;;
20056;SDS011;10189;49.546;7.906;2023-07-30T10:56:07;7.88;;;1.88;;
20056;SDS011;10189;49.546;7.906;2023-07-30T10:58:35;6.20;;;1.90;;
20056;SDS011;10189;49.546;7.906;2023-07-30T11:01:03;5.68;;;1.50;;
20056;SDS011;10189;49.546;7.906;2023-07-30T11:03:32;7.60;;;1.92;;
20056;SDS011;10189;49.546;7.906;2023-07-30T11:05:59;5.03;;;1.83;;
20056;SDS011;10189;49.546;7.906;2023-07-30T11:11:05;4.93;;;1.58;;
20056;SDS011;10189;49.546;7.906;2023-07-30T11:13:39;4.93;;;1.67;;
20056;SDS011;10189;49.546;7.906;2023-07-30T11:16:11;4.13;;;1.60;;
20056;SDS011;10189;49.546;7.906;2023-07-30T11:18:39;3.88;;;1.58;;
20056;SDS011;10189;49.546;7.906;2023-07-30T11:21:15;5.15;;;1.90;;
20056;SDS011;10189;49.546;7.906;2023-07-30T11:23:44;5.05;;;1.80;;
20056;SDS011;10189;49.546;7.906;2023-07-30T11:26:15;3.15;;;1.73;;
20056;SDS011;10189;49.546;7.906;2023-07-30T11:28:44;3.63;;;1.83;;
20056;SDS011;10189;49.546;7.906;2023-07-30T11:31:12;7.28;;;1.80;;
20056;SDS011;10189;49.546;7.906;2023-07-30T11:33:46;4.20;;;1.90;;
20056;SDS011;10189;49.546;7.906;2023-07-30T11:36:15;6.05;;;2.10;;
20056;SDS011;10189;49.546;7.906;2023-07-30T11:38:44;6.07;;;1.90;;
20056;SDS011;10189;49.546;7.906;2023-07-30T11:41:11;4.95;;;1.80;;
20056;SDS011;10189;49.546;7.906;2023-07-30T11:43:39;2.95;;;1.88;;
20056;SDS011;10189;49.546;7.906;2023-07-30T11:48:34;2.97;;;1.80;;
20056;SDS011;10189;49.546;7.906;2023-07-30T11:51:01;3.65;;;2.00;;
20056;SDS011;10189;49.546;7.906;2023-07-30T11:53:43;3.95;;;1.75;;
20056;SDS011;10189;49.546;7.906;2023-07-30T11:58:56;3.28;;;1.52;;
20056;SDS011;10189;49.546;7.906;2023-07-30T12:01:30;5.13;;;1.85;;
20056;SDS011;10189;49.546;7.906;2023-07-30T12:04:02;6.53;;;1.70;;
20056;SDS011;10189;49.546;7.906;2023-07-30T12:09:21;5.63;;;1.58;;
20056;SDS011;10189;49.546;7.906;2023-07-30T12:14:18;4.13;;;1.95;;
20056;SDS011;10189;49.546;7.906;2023-07-30T12:16:46;9.27;;;1.83;;
20056;SDS011;10189;49.546;7.906;2023-07-30T12:19:13;4.75;;;2.03;;
20056;SDS011;10189;49.546;7.906;2023-07-30T12:21:39;5.13;;;1.75;;
20056;SDS011;10189;49.546;7.906;2023-07-30T12:24:05;3.72;;;1.60;;
20056;SDS011;10189;49.546;7.906;2023-07-30T12:26:30;4.03;;;1.67;;
20056;SDS011;10189;49.546;7.906;2023-07-30T12:28:56;4.32;;;1.63;;
20056;SDS011;10189;49.546;7.906;2023-07-30T12:31:22;5.10;;;1.83;;
20056;SDS011;10189;49.546;7.906;2023-07-30T12:33:48;4.00;;;1.75;;
20056;SDS011;10189;49.546;7.906;2023-07-30T12:36:14;3.42;;;1.83;;
20056;SDS011;10189;49.546;7.906;2023-07-30T12:38:40;2.95;;;1.67;;
20056;SDS011;10189;49.546;7.906;2023-07-30T12:41:05;3.15;;;1.58;;
20056;SDS011;10189;49.546;7.906;2023-07-30T12:43:31;5.53;;;1.80;;
20056;SDS011;10189;49.546;7.906;2023-07-30T12:45:57;3.70;;;1.48;;
20056;SDS011;10189;49.546;7.906;2023-07-30T12:48:23;3.17;;;1.60;;
20056;SDS011;10189;49.546;7.906;2023-07-30T12:50:49;5.63;;;2.22;;
20056;SDS011;10189;49.546;7.906;2023-07-30T12:53:14;5.32;;;1.75;;
20056;SDS011;10189;49.546;7.906;2023-07-30T12:55:40;5.53;;;1.90;;
20056;SDS011;10189;49.546;7.906;2023-07-30T12:58:06;6.10;;;2.00;;
20056;SDS011;10189;49.546;7.906;2023-07-30T13:00:33;3.85;;;1.77;;
20056;SDS011;10189;49.546;7.906;2023-07-30T13:02:59;3.67;;;1.95;;
20056;SDS011;10189;49.546;7.906;2023-07-30T13:05:27;4.45;;;1.77;;
20056;SDS011;10189;49.546;7.906;2023-07-30T13:07:53;5.18;;;1.83;;
20056;SDS011;10189;49.546;7.906;2023-07-30T13:10:19;3.08;;;1.60;;
20056;SDS011;10189;49.546;7.906;2023-07-30T13:12:45;5.72;;;1.85;;
20056;SDS011;10189;49.546;7.906;2023-07-30T13:15:11;5.18;;;1.80;;
20056;SDS011;10189;49.546;7.906;2023-07-30T13:17:37;3.83;;;1.98;;
20056;SDS011;10189;49.546;7.906;2023-07-30T13:20:04;5.90;;;1.88;;
20056;SDS011;10189;49.546;7.906;2023-07-30T13:22:31;6.10;;;1.90;;
20056;SDS011;10189;49.546;7.906;2023-07-30T13:24:56;5.32;;;1.90;;
20056;SDS011;10189;49.546;7.906;2023-07-30T13:27:22;5.40;;;1.90;;
20056;SDS011;10189;49.546;7.906;2023-07-30T13:29:48;3.90;;;1.85;;
20056;SDS011;10189;49.546;7.906;2023-07-30T13:32:14;5.85;;;1.80;;
20056;SDS011;10189;49.546;7.906;2023-07-30T13:34:40;3.28;;;1.42;;
20056;SDS011;10189;49.546;7.906;2023-07-30T13:37:06;3.20;;;1.80;;
20056;SDS011;10189;49.546;7.906;2023-07-30T13:39:32;3.67;;;1.80;;
20056;SDS011;10189;49.546;7.906;2023-07-30T13:41:58;4.35;;;1.50;;
20056;SDS011;10189;49.546;7.906;2023-07-30T13:44:24;4.45;;;1.90;;
20056;SDS011;10189;49.546;7.906;2023-07-30T13:46:50;5.03;;;1.58;;
20056;SDS011;10189;49.546;7.906;2023-07-30T13:49:16;5.05;;;1.73;;
20056;SDS011;10189;49.546;7.906;2023-07-30T13:51:42;3.67;;;1.55;;
20056;SDS011;10189;49.546;7.906;2023-07-30T13:54:08;4.80;;;1.88;;
20056;SDS011;10189;49.546;7.906;2023-07-30T13:56:34;3.35;;;1.80;;
20056;SDS011;10189;49.546;7.906;2023-07-30T13:59:00;3.95;;;1.58;;
20056;SDS011;10189;49.546;7.906;2023-07-30T14:01:26;3.97;;;1.70;;
20056;SDS011;10189;49.546;7.906;2023-07-30T14:03:53;2.25;;;1.50;;
20056;SDS011;10189;49.546;7.906;2023-07-30T14:06:19;4.97;;;1.83;;
20056;SDS011;10189;49.546;7.906;2023-07-30T14:08:45;3.85;;;1.77;;
20056;SDS011;10189;49.546;7.906;2023-07-30T14:11:11;2.92;;;1.98;;
20056;SDS011;10189;49.546;7.906;2023-07-30T14:13:36;6.63;;;1.88;;
20056;SDS011;10189;49.546;7.906;2023-07-30T14:16:02;3.53;;;1.33;;
20056;SDS011;10189;49.546;7.906;2023-07-30T14:18:28;5.55;;;2.10;;
20056;SDS011;10189;49.546;7.906;2023-07-30T14:20:54;5.63;;;1.83;;
20056;SDS011;10189;49.546;7.906;2023-07-30T14:23:20;3.60;;;1.73;;
20056;SDS011;10189;49.546;7.906;2023-07-30T14:25:46;2.85;;;1.23;;
20056;SDS011;10189;49.546;7.906;2023-07-30T14:28:12;5.75;;;2.08;;
20056;SDS011;10189;49.546;7.906;2023-07-30T14:30:39;4.43;;;1.90;;
20056;SDS011;10189;49.546;7.906;2023-07-30T14:33:09;4.35;;;1.70;;
20056;SDS011;10189;49.546;7.906;2023-07-30T14:35:39;5.80;;;1.85;;
20056;SDS011;10189;49.546;7.906;2023-07-30T14:38:05;6.68;;;1.70;;
20056;SDS011;10189;49.546;7.906;2023-07-30T14:40:32;7.07;;;1.73;;
20056;SDS011;10189;49.546;7.906;2023-07-30T14:42:58;4.28;;;1.90;;
20056;SDS011;10189;49.546;7.906;2023-07-30T14:45:24;4.07;;;2.00;;
20056;SDS011;10189;49.546;7.906;2023-07-30T14:47:50;3.50;;;1.73;;
20056;SDS011;10189;49.546;7.906;2023-07-30T14:50:16;4.70;;;1.70;;
20056;SDS011;10189;49.546;7.906;2023-07-30T14:52:42;6.72;;;1.67;;
20056;SDS011;10189;49.546;7.906;2023-07-30T14:55:08;5.38;;;1.80;;
20056;SDS011;10189;49.546;7.906;2023-07-30T14:57:34;3.58;;;1.40;;
20056;SDS011;10189;49.546;7.906;2023-07-30T15:00:00;5.75;;;1.50;;
20056;SDS011;10189;49.546;7.906;2023-07-30T15:02:26;5.32;;;1.75;;
20056;SDS011;10189;49.546;7.906;2023-07-30T15:04:53;3.88;;;1.55;;
20056;SDS011;10189;49.546;7.906;2023-07-30T15:07:19;3.67;;;1.58;;
20056;SDS011;10189;49.546;7.906;2023-07-30T15:09:45;5.32;;;1.75;;
20056;SDS011;10189;49.546;7.906;2023-07-30T15:12:12;2.90;;;1.63;;
20056;SDS011;10189;49.546;7.906;2023-07-30T15:14:38;4.00;;;1.55;;